createdAt,value
2019-02-24T00:00:26.086Z,0.15
2019-02-24T00:01:01.298Z,0.14
2019-02-24T00:01:34.694Z,0.15
2019-02-24T00:02:06.064Z,0.15
2019-02-24T00:02:37.637Z,0.15
2019-02-24T00:03:09.114Z,0.05
2019-02-24T00:03:40.590Z,0.16
2019-02-24T00:04:11.960Z,0.15
2019-02-24T00:04:44.328Z,0.17
2019-02-24T00:05:15.785Z,0.16
2019-02-24T00:05:47.435Z,0.16
2019-02-24T00:06:18.893Z,0.14
2019-02-24T00:06:50.352Z,0.14
2019-02-24T00:07:21.797Z,0.15
2019-02-24T00:07:53.252Z,0.14
2019-02-24T00:08:24.622Z,0.17
2019-02-24T00:08:55.944Z,0.16
2019-02-24T00:09:27.517Z,0.16
2019-02-24T00:09:58.831Z,0.17
2019-02-24T00:10:30.265Z,0.17
2019-02-24T00:11:01.553Z,0.18
2019-02-24T00:11:32.833Z,0.19
2019-02-24T00:12:04.173Z,0.19
2019-02-24T00:12:35.700Z,0.20
2019-02-24T00:13:07.194Z,0.20
2019-02-24T00:13:38.763Z,0.22
2019-02-24T00:14:10.159Z,0.23
2019-02-24T00:14:41.615Z,0.24
2019-02-24T00:15:13.146Z,0.23
2019-02-24T00:15:44.644Z,0.26
2019-02-24T00:16:16.036Z,0.27
2019-02-24T00:16:47.532Z,0.27
2019-02-24T00:17:19.019Z,0.28
2019-02-24T00:17:50.359Z,0.26
2019-02-24T00:18:21.700Z,0.26
2019-02-24T00:18:53.014Z,0.27
2019-02-24T00:19:24.444Z,0.26
2019-02-24T00:19:55.733Z,0.26
2019-02-24T00:20:27.131Z,0.25
2019-02-24T00:20:58.459Z,0.16
2019-02-24T00:21:29.816Z,0.18
2019-02-24T00:22:01.171Z,0.29
2019-02-24T00:22:32.535Z,0.27
2019-02-24T00:23:04.808Z,0.28
2019-02-24T00:23:36.249Z,0.27
2019-02-24T00:24:07.598Z,0.27
2019-02-24T00:24:39.165Z,0.17
2019-02-24T00:25:10.472Z,0.28
2019-02-24T00:25:41.837Z,0.27
2019-02-24T00:26:13.288Z,0.27
2019-02-24T00:26:44.668Z,0.27
2019-02-24T00:27:15.911Z,0.27
2019-02-24T00:27:47.404Z,0.28
2019-02-24T00:28:18.899Z,0.28
2019-02-24T00:28:50.233Z,0.28
2019-02-24T00:29:21.571Z,0.27
2019-02-24T00:29:52.923Z,0.28
2019-02-24T00:30:24.374Z,0.28
2019-02-24T00:30:55.690Z,0.28
2019-02-24T00:31:27.024Z,0.28
2019-02-24T00:31:58.371Z,0.29
2019-02-24T00:32:29.722Z,0.30
2019-02-24T00:33:01.018Z,0.29
2019-02-24T00:33:32.334Z,0.30
2019-02-24T00:34:03.650Z,0.30
2019-02-24T00:34:34.956Z,0.26
2019-02-24T00:35:06.438Z,0.30
2019-02-24T00:35:37.812Z,0.31
2019-02-24T00:36:09.164Z,0.31
2019-02-24T00:36:40.596Z,0.29
2019-02-24T00:37:11.922Z,0.30
2019-02-24T00:37:43.353Z,0.30
2019-02-24T00:38:15.747Z,0.31
2019-02-24T00:38:47.017Z,0.32
2019-02-24T00:39:18.413Z,0.24
2019-02-24T00:39:49.888Z,0.24
2019-02-24T00:40:21.251Z,0.23
2019-02-24T00:40:52.823Z,0.23
2019-02-24T00:41:24.134Z,0.23
2019-02-24T00:41:55.531Z,0.33
2019-02-24T00:42:26.765Z,0.34
2019-02-24T00:42:59.120Z,0.34
2019-02-24T00:43:30.468Z,0.34
2019-02-24T00:44:01.901Z,0.31
2019-02-24T00:44:33.196Z,0.34
2019-02-24T00:45:06.558Z,0.32
2019-02-24T00:45:37.897Z,0.33
2019-02-24T00:46:09.241Z,0.33
2019-02-24T00:46:40.508Z,0.32
2019-02-24T00:47:11.884Z,0.34
2019-02-24T00:47:43.343Z,0.34
2019-02-24T00:48:14.705Z,0.33
2019-02-24T00:48:46.078Z,0.33
2019-02-24T00:49:17.372Z,0.32
2019-02-24T00:49:48.680Z,0.32
2019-02-24T00:50:19.989Z,0.32
2019-02-24T00:50:52.294Z,0.33
2019-02-24T00:51:23.641Z,0.32
2019-02-24T00:51:54.914Z,0.31
2019-02-24T00:52:26.290Z,0.32
2019-02-24T00:52:57.648Z,0.31
2019-02-24T00:53:29.022Z,0.32
2019-02-24T00:54:00.385Z,0.32
2019-02-24T00:54:32.138Z,0.33
2019-02-24T00:55:05.657Z,0.33
2019-02-24T00:55:37.015Z,0.33
2019-02-24T00:56:08.428Z,0.34
2019-02-24T00:56:39.736Z,0.34
2019-02-24T00:57:11.240Z,0.33
2019-02-24T00:57:42.562Z,0.33
2019-02-24T00:58:16.442Z,0.33
2019-02-24T00:58:47.552Z,0.34
2019-02-24T00:59:18.864Z,0.36
2019-02-24T00:59:50.709Z,0.36
2019-02-24T01:00:21.966Z,0.36
2019-02-24T01:00:53.235Z,0.36
2019-02-24T01:01:24.474Z,0.35
2019-02-24T01:01:55.940Z,0.35
2019-02-24T01:02:27.208Z,0.36
2019-02-24T01:02:58.662Z,0.36
2019-02-24T01:03:30.079Z,0.37
2019-02-24T01:04:01.463Z,0.35
2019-02-24T01:04:32.822Z,0.37
2019-02-24T01:05:06.380Z,0.38
2019-02-24T01:05:37.713Z,0.37
2019-02-24T01:06:09.251Z,0.39
2019-02-24T01:06:40.619Z,0.38
2019-02-24T01:07:11.947Z,0.38
2019-02-24T01:07:43.243Z,0.38
2019-02-24T01:08:14.555Z,0.39
2019-02-24T01:08:45.889Z,0.40
2019-02-24T01:09:17.401Z,0.41
2019-02-24T01:09:48.723Z,0.42
2019-02-24T01:10:20.207Z,0.42
2019-02-24T01:10:51.587Z,0.42
2019-02-24T01:11:22.942Z,0.43
2019-02-24T01:11:54.236Z,0.44
2019-02-24T01:12:25.590Z,0.45
2019-02-24T01:12:56.810Z,0.44
2019-02-24T01:13:28.278Z,0.44
2019-02-24T01:13:59.720Z,0.44
2019-02-24T01:14:31.060Z,0.46
2019-02-24T01:15:05.852Z,0.45
2019-02-24T01:15:37.383Z,0.44
2019-02-24T01:16:08.726Z,0.44
2019-02-24T01:16:40.054Z,0.45
2019-02-24T01:17:11.536Z,0.45
2019-02-24T01:17:42.831Z,0.46
2019-02-24T01:18:14.158Z,0.48
2019-02-24T01:18:45.667Z,0.49
2019-02-24T01:19:17.356Z,0.48
2019-02-24T01:19:48.751Z,0.48
2019-02-24T01:20:20.015Z,0.47
2019-02-24T01:20:51.355Z,0.48
2019-02-24T01:21:22.749Z,0.47
2019-02-24T01:21:54.057Z,0.46
2019-02-24T01:22:25.380Z,0.45
2019-02-24T01:22:56.640Z,0.45
2019-02-24T01:23:28.042Z,0.45
2019-02-24T01:23:59.357Z,0.44
2019-02-24T01:24:30.761Z,0.44
2019-02-24T01:25:02.165Z,0.45
2019-02-24T01:25:33.459Z,0.45
2019-02-24T01:26:04.921Z,0.46
2019-02-24T01:26:36.325Z,0.45
2019-02-24T01:27:07.824Z,0.47
2019-02-24T01:27:39.133Z,0.46
2019-02-24T01:28:10.551Z,0.46
2019-02-24T01:28:41.942Z,0.46
2019-02-24T01:29:15.772Z,0.44
2019-02-24T01:29:47.452Z,0.47
2019-02-24T01:30:18.961Z,0.47
2019-02-24T01:30:50.448Z,0.49
2019-02-24T01:31:21.845Z,0.48
2019-02-24T01:31:53.230Z,0.48
2019-02-24T01:32:24.577Z,0.51
2019-02-24T01:32:56.113Z,0.51
2019-02-24T01:33:27.658Z,0.51
2019-02-24T01:33:59.036Z,0.50
2019-02-24T01:34:30.471Z,0.51
2019-02-24T01:35:01.870Z,0.52
2019-02-24T01:35:33.462Z,0.51
2019-02-24T01:36:04.851Z,0.50
2019-02-24T01:36:36.125Z,0.51
2019-02-24T01:37:07.389Z,0.50
2019-02-24T01:37:38.711Z,0.48
2019-02-24T01:38:10.094Z,0.49
2019-02-24T01:38:41.546Z,0.53
2019-02-24T01:39:12.917Z,0.53
2019-02-24T01:39:44.305Z,0.55
2019-02-24T01:40:15.615Z,0.56
2019-02-24T01:40:47.159Z,0.56
2019-02-24T01:41:18.581Z,0.57
2019-02-24T01:41:50.080Z,0.60
2019-02-24T01:42:21.341Z,0.60
2019-02-24T01:42:52.828Z,0.57
2019-02-24T01:43:24.236Z,0.60
2019-02-24T01:43:55.546Z,0.62
2019-02-24T01:44:26.856Z,0.61
2019-02-24T01:44:58.186Z,0.62
2019-02-24T01:45:29.584Z,0.63
2019-02-24T01:46:01.040Z,0.63
2019-02-24T01:46:32.411Z,0.63
2019-02-24T01:47:03.774Z,0.55
2019-02-24T01:47:35.183Z,0.65
2019-02-24T01:48:06.603Z,0.67
2019-02-24T01:48:37.986Z,0.68
2019-02-24T01:49:09.391Z,0.70
2019-02-24T01:49:40.685Z,0.71
2019-02-24T01:50:12.063Z,0.72
2019-02-24T01:50:43.604Z,0.72
2019-02-24T01:51:14.999Z,0.66
2019-02-24T01:51:46.653Z,0.71
2019-02-24T01:52:17.987Z,0.73
2019-02-24T01:52:49.359Z,0.73
2019-02-24T01:53:20.871Z,0.72
2019-02-24T01:53:52.323Z,0.73
2019-02-24T01:54:23.692Z,0.72
2019-02-24T01:54:55.001Z,0.61
2019-02-24T01:55:26.388Z,0.72
2019-02-24T01:55:57.732Z,0.70
2019-02-24T01:56:29.098Z,0.69
2019-02-24T01:57:00.482Z,0.68
2019-02-24T01:57:31.666Z,0.68
2019-02-24T01:58:03.067Z,0.69
2019-02-24T01:58:35.414Z,0.67
2019-02-24T01:59:06.924Z,0.66
2019-02-24T01:59:38.358Z,0.65
2019-02-24T02:00:09.933Z,0.65
2019-02-24T02:00:41.574Z,0.65
2019-02-24T02:01:13.190Z,0.65
2019-02-24T02:01:44.789Z,0.66
2019-02-24T02:02:16.614Z,0.66
2019-02-24T02:02:47.981Z,0.57
2019-02-24T02:03:19.377Z,0.57
2019-02-24T02:03:50.805Z,0.66
2019-02-24T02:04:22.179Z,0.68
2019-02-24T02:04:53.639Z,0.68
2019-02-24T02:05:24.859Z,0.68
2019-02-24T02:05:56.179Z,0.68
2019-02-24T02:06:27.591Z,0.68
2019-02-24T02:06:59.029Z,0.68
2019-02-24T02:07:30.431Z,0.68
2019-02-24T02:08:01.725Z,0.68
2019-02-24T02:08:33.101Z,0.62
2019-02-24T02:09:04.659Z,0.62
2019-02-24T02:09:37.835Z,0.74
2019-02-24T02:10:10.975Z,0.74
2019-02-24T02:10:42.332Z,0.73
2019-02-24T02:11:13.626Z,0.74
2019-02-24T02:11:44.925Z,0.75
2019-02-24T02:12:16.186Z,0.75
2019-02-24T02:12:47.486Z,0.77
2019-02-24T02:13:18.884Z,0.78
2019-02-24T02:13:50.287Z,0.79
2019-02-24T02:14:21.634Z,0.79
2019-02-24T02:14:52.984Z,0.80
2019-02-24T02:15:24.322Z,0.81
2019-02-24T02:15:55.659Z,0.81
2019-02-24T02:16:27.144Z,0.80
2019-02-24T02:16:58.544Z,0.80
2019-02-24T02:17:29.842Z,0.80
2019-02-24T02:18:01.117Z,0.82
2019-02-24T02:18:32.413Z,0.78
2019-02-24T02:19:03.711Z,0.80
2019-02-24T02:19:34.973Z,0.80
2019-02-24T02:20:07.813Z,0.82
2019-02-24T02:20:39.165Z,0.84
2019-02-24T02:21:10.571Z,0.83
2019-02-24T02:21:42.029Z,0.83
2019-02-24T02:22:13.590Z,0.72
2019-02-24T02:22:45.045Z,0.83
2019-02-24T02:23:16.505Z,0.83
2019-02-24T02:23:47.739Z,0.84
2019-02-24T02:24:19.073Z,0.85
2019-02-24T02:24:50.500Z,0.85
2019-02-24T02:25:21.755Z,0.84
2019-02-24T02:25:53.055Z,0.85
2019-02-24T02:26:24.318Z,0.86
2019-02-24T02:26:55.664Z,0.86
2019-02-24T02:27:26.922Z,0.86
2019-02-24T02:27:58.292Z,0.83
2019-02-24T02:28:29.709Z,0.85
2019-02-24T02:29:01.083Z,0.85
2019-02-24T02:29:32.421Z,0.86
2019-02-24T02:30:08.129Z,0.85
2019-02-24T02:30:39.695Z,0.82
2019-02-24T02:31:11.257Z,0.82
2019-02-24T02:31:42.696Z,0.83
2019-02-24T02:32:14.404Z,0.83
2019-02-24T02:32:45.625Z,0.82
2019-02-24T02:33:16.985Z,0.74
2019-02-24T02:33:48.212Z,0.74
2019-02-24T02:34:19.697Z,0.84
2019-02-24T02:34:51.065Z,0.87
2019-02-24T02:35:22.518Z,0.76
2019-02-24T02:35:53.935Z,0.76
2019-02-24T02:36:25.302Z,0.84
2019-02-24T02:36:56.680Z,0.84
2019-02-24T02:37:28.108Z,0.84
2019-02-24T02:37:59.355Z,0.84
2019-02-24T02:38:30.736Z,0.82
2019-02-24T02:39:02.059Z,0.81
2019-02-24T02:39:35.192Z,0.79
2019-02-24T02:40:07.169Z,0.79
2019-02-24T02:40:38.586Z,0.77
2019-02-24T02:41:09.821Z,0.76
2019-02-24T02:41:41.096Z,0.76
2019-02-24T02:42:12.408Z,0.75
2019-02-24T02:42:43.709Z,0.75
2019-02-24T02:43:15.375Z,0.73
2019-02-24T02:43:46.731Z,0.73
2019-02-24T02:44:18.067Z,0.73
2019-02-24T02:44:49.354Z,0.72
2019-02-24T02:45:20.613Z,0.71
2019-02-24T02:45:52.046Z,0.70
2019-02-24T02:46:23.375Z,0.68
2019-02-24T02:46:54.773Z,0.68
2019-02-24T02:47:26.029Z,0.68
2019-02-24T02:47:57.444Z,0.66
2019-02-24T02:48:28.767Z,0.66
2019-02-24T02:49:00.121Z,0.66
2019-02-24T02:49:31.380Z,0.64
2019-02-24T02:50:03.029Z,0.65
2019-02-24T02:50:34.403Z,0.64
2019-02-24T02:51:05.897Z,0.64
2019-02-24T02:51:37.213Z,0.64
2019-02-24T02:52:08.491Z,0.66
2019-02-24T02:52:39.781Z,0.65
2019-02-24T02:53:11.157Z,0.61
2019-02-24T02:53:42.401Z,0.64
2019-02-24T02:54:13.755Z,0.65
2019-02-24T02:54:45.089Z,0.64
2019-02-24T02:55:16.700Z,0.64
2019-02-24T02:55:47.947Z,0.63
2019-02-24T02:56:19.267Z,0.63
2019-02-24T02:56:50.622Z,0.63
2019-02-24T02:57:22.027Z,0.63
2019-02-24T02:57:53.422Z,0.64
2019-02-24T02:58:25.049Z,0.64
2019-02-24T02:58:56.349Z,0.64
2019-02-24T02:59:27.747Z,0.64
2019-02-24T02:59:59.076Z,0.64
2019-02-24T03:00:35.099Z,0.65
2019-02-24T03:01:06.405Z,0.64
2019-02-24T03:01:37.858Z,0.63
2019-02-24T03:02:09.212Z,0.63
2019-02-24T03:02:40.607Z,0.63
2019-02-24T03:03:11.843Z,0.63
2019-02-24T03:03:43.541Z,0.62
2019-02-24T03:04:14.789Z,0.60
2019-02-24T03:04:46.678Z,0.60
2019-02-24T03:05:18.121Z,0.60
2019-02-24T03:05:57.253Z,0.61
2019-02-24T03:06:39.661Z,0.61
2019-02-24T03:07:12.995Z,0.62
2019-02-24T03:07:46.211Z,0.62
2019-02-24T03:08:17.558Z,0.60
2019-02-24T03:08:53.271Z,0.60
2019-02-24T03:09:24.559Z,0.60
2019-02-24T03:09:56.052Z,0.61
2019-02-24T03:10:27.406Z,0.49
2019-02-24T03:10:58.832Z,0.60
2019-02-24T03:11:30.324Z,0.59
2019-02-24T03:12:01.651Z,0.48
2019-02-24T03:12:32.947Z,0.59
2019-02-24T03:13:04.370Z,0.60
2019-02-24T03:13:35.808Z,0.60
2019-02-24T03:14:07.174Z,0.60
2019-02-24T03:14:38.460Z,0.61
2019-02-24T03:15:09.823Z,0.62
2019-02-24T03:15:41.324Z,0.59
2019-02-24T03:16:12.802Z,0.59
2019-02-24T03:16:44.085Z,0.61
2019-02-24T03:17:15.461Z,0.61
2019-02-24T03:17:46.878Z,0.62
2019-02-24T03:18:18.253Z,0.62
2019-02-24T03:18:49.776Z,0.61
2019-02-24T03:19:21.026Z,0.62
2019-02-24T03:19:52.368Z,0.61
2019-02-24T03:20:23.826Z,0.61
2019-02-24T03:20:55.212Z,0.58
2019-02-24T03:21:26.529Z,0.61
2019-02-24T03:21:58.135Z,0.63
2019-02-24T03:22:29.509Z,0.61
2019-02-24T03:23:00.777Z,0.60
2019-02-24T03:23:32.105Z,0.60
2019-02-24T03:24:03.378Z,0.58
2019-02-24T03:24:34.686Z,0.60
2019-02-24T03:25:06.044Z,0.59
2019-02-24T03:25:37.488Z,0.59
2019-02-24T03:26:08.882Z,0.60
2019-02-24T03:26:40.339Z,0.60
2019-02-24T03:27:12.607Z,0.59
2019-02-24T03:27:43.912Z,0.48
2019-02-24T03:28:15.184Z,0.47
2019-02-24T03:28:46.816Z,0.47
2019-02-24T03:29:18.214Z,0.48
2019-02-24T03:29:49.651Z,0.56
2019-02-24T03:30:20.932Z,0.56
2019-02-24T03:30:52.581Z,0.56
2019-02-24T03:31:24.918Z,0.55
2019-02-24T03:31:56.351Z,0.55
2019-02-24T03:32:27.728Z,0.55
2019-02-24T03:32:59.040Z,0.54
2019-02-24T03:33:30.380Z,0.54
2019-02-24T03:34:02.027Z,0.54
2019-02-24T03:34:33.418Z,0.54
2019-02-24T03:35:05.229Z,0.54
2019-02-24T03:35:36.485Z,0.54
2019-02-24T03:36:07.808Z,0.54
2019-02-24T03:36:39.015Z,0.55
2019-02-24T03:37:10.303Z,0.55
2019-02-24T03:37:41.517Z,0.56
2019-02-24T03:38:12.785Z,0.56
2019-02-24T03:38:43.982Z,0.55
2019-02-24T03:39:15.282Z,0.56
2019-02-24T03:39:46.580Z,0.56
2019-02-24T03:40:17.920Z,0.55
2019-02-24T03:40:49.107Z,0.54
2019-02-24T03:41:20.414Z,0.54
2019-02-24T03:41:51.701Z,0.53
2019-02-24T03:42:22.950Z,0.53
2019-02-24T03:42:54.126Z,0.54
2019-02-24T03:43:25.366Z,0.53
2019-02-24T03:43:56.570Z,0.53
2019-02-24T03:44:27.950Z,0.53
2019-02-24T03:44:59.160Z,0.54
2019-02-24T03:45:30.589Z,0.44
2019-02-24T03:46:01.789Z,0.52
2019-02-24T03:46:33.078Z,0.52
2019-02-24T03:47:04.297Z,0.48
2019-02-24T03:47:35.643Z,0.51
2019-02-24T03:48:06.836Z,0.51
2019-02-24T03:48:38.092Z,0.51
2019-02-24T03:49:09.361Z,0.52
2019-02-24T03:49:40.705Z,0.50
2019-02-24T03:50:12.028Z,0.50
2019-02-24T03:50:43.611Z,0.50
2019-02-24T03:51:14.850Z,0.49
2019-02-24T03:51:46.137Z,0.48
2019-02-24T03:52:18.386Z,0.49
2019-02-24T03:52:49.588Z,0.47
2019-02-24T03:53:21.845Z,0.47
2019-02-24T03:53:53.215Z,0.38
2019-02-24T03:54:24.558Z,0.49
2019-02-24T03:54:55.827Z,0.38
2019-02-24T03:55:27.071Z,0.51
2019-02-24T03:55:58.457Z,0.47
2019-02-24T03:56:29.795Z,0.49
2019-02-24T03:57:01.136Z,0.50
2019-02-24T03:57:32.374Z,0.51
2019-02-24T03:58:03.694Z,0.52
2019-02-24T03:58:36.156Z,0.52
2019-02-24T03:59:15.012Z,0.43
2019-02-24T03:59:40.575Z,0.43
2019-02-24T04:00:11.797Z,0.54
2019-02-24T04:00:43.113Z,0.55
2019-02-24T04:01:14.381Z,0.56
2019-02-24T04:01:45.709Z,0.56
2019-02-24T04:02:17.277Z,0.56
2019-02-24T04:02:48.620Z,0.56
2019-02-24T04:03:19.945Z,0.56
2019-02-24T04:03:51.194Z,0.57
2019-02-24T04:04:22.433Z,0.56
2019-02-24T04:04:53.661Z,0.55
2019-02-24T04:05:24.911Z,0.55
2019-02-24T04:05:56.248Z,0.53
2019-02-24T04:06:27.618Z,0.52
2019-02-24T04:06:58.884Z,0.52
2019-02-24T04:07:30.159Z,0.54
2019-02-24T04:08:01.378Z,0.54
2019-02-24T04:08:32.659Z,0.54
2019-02-24T04:09:03.953Z,0.54
2019-02-24T04:09:36.858Z,0.55
2019-02-24T04:10:08.186Z,0.53
2019-02-24T04:10:39.525Z,0.53
2019-02-24T04:11:10.784Z,0.53
2019-02-24T04:11:42.070Z,0.55
2019-02-24T04:12:13.292Z,0.53
2019-02-24T04:12:44.593Z,0.53
2019-02-24T04:13:15.828Z,0.44
2019-02-24T04:13:47.390Z,0.44
2019-02-24T04:14:18.676Z,0.53
2019-02-24T04:14:50.064Z,0.53
2019-02-24T04:15:21.218Z,0.53
2019-02-24T04:15:52.513Z,0.54
2019-02-24T04:16:23.739Z,0.54
2019-02-24T04:16:55.021Z,0.55
2019-02-24T04:17:26.264Z,0.53
2019-02-24T04:17:57.516Z,0.53
2019-02-24T04:18:28.723Z,0.53
2019-02-24T04:18:59.992Z,0.52
2019-02-24T04:19:31.211Z,0.52
2019-02-24T04:20:03.282Z,0.45
2019-02-24T04:20:34.509Z,0.52
2019-02-24T04:21:05.812Z,0.51
2019-02-24T04:21:37.091Z,0.51
2019-02-24T04:22:08.375Z,0.51
2019-02-24T04:22:39.616Z,0.49
2019-02-24T04:23:10.958Z,0.49
2019-02-24T04:23:42.252Z,0.49
2019-02-24T04:24:13.658Z,0.49
2019-02-24T04:24:44.930Z,0.51
2019-02-24T04:25:16.222Z,0.48
2019-02-24T04:25:47.563Z,0.50
2019-02-24T04:26:19.066Z,0.50
2019-02-24T04:26:50.450Z,0.50
2019-02-24T04:27:21.758Z,0.48
2019-02-24T04:27:53.002Z,0.53
2019-02-24T04:28:24.312Z,0.52
2019-02-24T04:28:55.582Z,0.53
2019-02-24T04:29:26.950Z,0.52
2019-02-24T04:29:58.208Z,0.52
2019-02-24T04:30:29.672Z,0.51
2019-02-24T04:31:01.035Z,0.51
2019-02-24T04:31:32.416Z,0.50
2019-02-24T04:32:05.640Z,0.48
2019-02-24T04:32:36.979Z,0.48
2019-02-24T04:33:08.543Z,0.48
2019-02-24T04:33:39.768Z,0.45
2019-02-24T04:34:11.107Z,0.45
2019-02-24T04:34:42.327Z,0.45
2019-02-24T04:35:13.665Z,0.45
2019-02-24T04:35:44.911Z,0.45
2019-02-24T04:36:16.545Z,0.45
2019-02-24T04:36:47.857Z,0.47
2019-02-24T04:37:19.175Z,0.47
2019-02-24T04:37:50.597Z,0.47
2019-02-24T04:38:21.945Z,0.46
2019-02-24T04:38:53.420Z,0.45
2019-02-24T04:39:24.793Z,0.45
2019-02-24T04:39:56.160Z,0.44
2019-02-24T04:40:27.504Z,0.44
2019-02-24T04:40:58.765Z,0.44
2019-02-24T04:41:29.938Z,0.45
2019-02-24T04:42:01.269Z,0.44
2019-02-24T04:42:32.547Z,0.45
2019-02-24T04:43:03.878Z,0.44
2019-02-24T04:43:35.158Z,0.44
2019-02-24T04:44:06.461Z,0.44
2019-02-24T04:44:37.812Z,0.44
2019-02-24T04:45:09.119Z,0.43
2019-02-24T04:45:40.405Z,0.44
2019-02-24T04:46:12.102Z,0.45
2019-02-24T04:46:43.413Z,0.45
2019-02-24T04:47:14.869Z,0.47
2019-02-24T04:47:46.306Z,0.47
2019-02-24T04:48:17.718Z,0.46
2019-02-24T04:48:48.969Z,0.48
2019-02-24T04:49:20.429Z,0.49
2019-02-24T04:49:51.785Z,0.49
2019-02-24T04:50:23.209Z,0.49
2019-02-24T04:50:54.537Z,0.49
2019-02-24T04:51:25.881Z,0.48
2019-02-24T04:51:57.321Z,0.48
2019-02-24T04:52:28.776Z,0.47
2019-02-24T04:53:01.188Z,0.47
2019-02-24T04:53:32.835Z,0.48
2019-02-24T04:54:04.281Z,0.49
2019-02-24T04:54:35.590Z,0.50
2019-02-24T04:55:07.032Z,0.51
2019-02-24T04:55:38.413Z,0.51
2019-02-24T04:56:09.738Z,0.49
2019-02-24T04:56:41.144Z,0.49
2019-02-24T04:57:12.634Z,0.51
2019-02-24T04:57:43.873Z,0.50
2019-02-24T04:58:15.303Z,0.52
2019-02-24T04:58:46.635Z,0.51
2019-02-24T04:59:18.081Z,0.51
2019-02-24T04:59:49.438Z,0.50
2019-02-24T05:00:20.723Z,0.51
2019-02-24T05:00:52.017Z,0.49
2019-02-24T05:01:23.377Z,0.48
2019-02-24T05:01:54.933Z,0.49
2019-02-24T05:02:26.193Z,0.49
2019-02-24T05:02:57.546Z,0.49
2019-02-24T05:03:28.793Z,0.48
2019-02-24T05:04:00.175Z,0.50
2019-02-24T05:04:31.546Z,0.48
2019-02-24T05:05:04.137Z,0.51
2019-02-24T05:05:36.508Z,0.49
2019-02-24T05:06:07.747Z,0.51
2019-02-24T05:06:39.276Z,0.51
2019-02-24T05:07:10.652Z,0.50
2019-02-24T05:07:41.872Z,0.52
2019-02-24T05:08:13.527Z,0.52
2019-02-24T05:08:44.850Z,0.52
2019-02-24T05:09:16.485Z,0.52
2019-02-24T05:09:47.752Z,0.53
2019-02-24T05:10:19.079Z,0.53
2019-02-24T05:10:50.304Z,0.54
2019-02-24T05:11:21.692Z,0.53
2019-02-24T05:11:52.947Z,0.54
2019-02-24T05:12:24.308Z,0.54
2019-02-24T05:12:55.659Z,0.54
2019-02-24T05:13:26.968Z,0.54
2019-02-24T05:13:58.212Z,0.55
2019-02-24T05:14:29.566Z,0.54
2019-02-24T05:15:00.851Z,0.54
2019-02-24T05:15:32.321Z,0.56
2019-02-24T05:16:03.753Z,0.55
2019-02-24T05:16:35.077Z,0.54
2019-02-24T05:17:06.405Z,0.54
2019-02-24T05:17:38.781Z,0.54
2019-02-24T05:18:10.275Z,0.54
2019-02-24T05:18:41.791Z,0.54
2019-02-24T05:19:13.158Z,0.54
2019-02-24T05:19:44.651Z,0.56
2019-02-24T05:20:15.937Z,0.56
2019-02-24T05:20:48.427Z,0.56
2019-02-24T05:21:19.739Z,0.55
2019-02-24T05:21:51.222Z,0.55
2019-02-24T05:22:22.598Z,0.54
2019-02-24T05:22:54.057Z,0.55
2019-02-24T05:23:25.338Z,0.54
2019-02-24T05:23:56.743Z,0.54
2019-02-24T05:24:28.054Z,0.54
2019-02-24T05:25:00.385Z,0.54
2019-02-24T05:25:31.685Z,0.54
2019-02-24T05:26:03.238Z,0.55
2019-02-24T05:26:35.646Z,0.54
2019-02-24T05:27:07.281Z,0.56
2019-02-24T05:27:38.810Z,0.54
2019-02-24T05:28:10.152Z,0.53
2019-02-24T05:28:41.504Z,0.54
2019-02-24T05:29:12.844Z,0.55
2019-02-24T05:29:46.160Z,0.55
2019-02-24T05:30:17.672Z,0.54
2019-02-24T05:30:49.118Z,0.54
2019-02-24T05:31:20.512Z,0.55
2019-02-24T05:31:52.029Z,0.53
2019-02-24T05:32:23.388Z,0.54
2019-02-24T05:32:54.744Z,0.54
2019-02-24T05:33:26.141Z,0.55
2019-02-24T05:33:57.504Z,0.54
2019-02-24T05:34:30.020Z,0.55
2019-02-24T05:35:01.463Z,0.53
2019-02-24T05:35:33.103Z,0.54
2019-02-24T05:36:04.549Z,0.54
2019-02-24T05:36:36.064Z,0.53
2019-02-24T05:37:07.568Z,0.54
2019-02-24T05:37:40.051Z,0.52
2019-02-24T05:38:11.388Z,0.53
2019-02-24T05:38:42.858Z,0.53
2019-02-24T05:39:14.332Z,0.52
2019-02-24T05:39:45.718Z,0.53
2019-02-24T05:40:17.208Z,0.52
2019-02-24T05:40:48.654Z,0.51
2019-02-24T05:41:20.088Z,0.51
2019-02-24T05:41:51.512Z,0.52
2019-02-24T05:42:22.861Z,0.52
2019-02-24T05:42:54.216Z,0.52
2019-02-24T05:43:25.574Z,0.51
2019-02-24T05:43:56.849Z,0.49
2019-02-24T05:44:28.147Z,0.49
2019-02-24T05:44:59.421Z,0.42
2019-02-24T05:45:30.789Z,0.49
2019-02-24T05:46:02.069Z,0.50
2019-02-24T05:46:33.484Z,0.49
2019-02-24T05:47:04.931Z,0.49
2019-02-24T05:47:36.367Z,0.49
2019-02-24T05:48:07.775Z,0.48
2019-02-24T05:48:39.155Z,0.48
2019-02-24T05:49:10.426Z,0.48
2019-02-24T05:49:41.863Z,0.48
2019-02-24T05:50:13.109Z,0.48
2019-02-24T05:50:44.672Z,0.49
2019-02-24T05:51:15.966Z,0.46
2019-02-24T05:51:47.423Z,0.47
2019-02-24T05:52:18.835Z,0.47
2019-02-24T05:52:50.207Z,0.46
2019-02-24T05:53:21.510Z,0.46
2019-02-24T05:53:52.981Z,0.46
2019-02-24T05:54:24.402Z,0.46
2019-02-24T05:54:55.836Z,0.47
2019-02-24T05:55:27.280Z,0.48
2019-02-24T05:55:58.729Z,0.48
2019-02-24T05:56:30.078Z,0.47
2019-02-24T05:57:01.464Z,0.46
2019-02-24T05:57:32.763Z,0.48
2019-02-24T05:58:04.198Z,0.37
2019-02-24T05:58:35.604Z,0.47
2019-02-24T05:59:07.005Z,0.47
2019-02-24T05:59:39.845Z,0.47
2019-02-24T06:00:11.368Z,0.47
2019-02-24T06:00:42.672Z,0.47
2019-02-24T06:01:14.465Z,0.48
2019-02-24T06:01:45.769Z,0.48
2019-02-24T06:02:17.195Z,0.49
2019-02-24T06:02:48.587Z,0.49
2019-02-24T06:03:20.028Z,0.49
2019-02-24T06:03:51.371Z,0.53
2019-02-24T06:04:22.738Z,0.54
2019-02-24T06:04:54.158Z,0.54
2019-02-24T06:05:25.559Z,0.55
2019-02-24T06:05:56.901Z,0.56
2019-02-24T06:06:28.372Z,0.55
2019-02-24T06:06:59.692Z,0.56
2019-02-24T06:07:33.149Z,0.56
2019-02-24T06:08:04.366Z,0.56
2019-02-24T06:08:35.630Z,0.58
2019-02-24T06:09:07.098Z,0.58
2019-02-24T06:09:38.558Z,0.59
2019-02-24T06:10:09.878Z,0.59
2019-02-24T06:10:41.164Z,0.60
2019-02-24T06:11:12.665Z,0.60
2019-02-24T06:11:44.164Z,0.58
2019-02-24T06:12:15.504Z,0.58
2019-02-24T06:12:46.929Z,0.58
2019-02-24T06:13:18.402Z,0.59
2019-02-24T06:13:49.725Z,0.47
2019-02-24T06:14:21.073Z,0.59
2019-02-24T06:14:52.676Z,0.58
2019-02-24T06:15:23.988Z,0.58
2019-02-24T06:15:55.381Z,0.58
2019-02-24T06:16:26.779Z,0.57
2019-02-24T06:16:58.323Z,0.56
2019-02-24T06:17:29.660Z,0.56
2019-02-24T06:18:00.938Z,0.56
2019-02-24T06:18:32.169Z,0.56
2019-02-24T06:19:03.623Z,0.56
2019-02-24T06:19:35.041Z,0.57
2019-02-24T06:20:06.448Z,0.58
2019-02-24T06:20:38.052Z,0.58
2019-02-24T06:21:09.405Z,0.58
2019-02-24T06:21:41.731Z,0.58
2019-02-24T06:22:13.167Z,0.57
2019-02-24T06:22:44.549Z,0.59
2019-02-24T06:23:15.868Z,0.60
2019-02-24T06:23:47.294Z,0.60
2019-02-24T06:24:18.568Z,0.60
2019-02-24T06:24:49.914Z,0.61
2019-02-24T06:25:21.366Z,0.62
2019-02-24T06:25:52.688Z,0.62
2019-02-24T06:26:24.080Z,0.62
2019-02-24T06:26:55.515Z,0.63
2019-02-24T06:27:26.804Z,0.63
2019-02-24T06:27:58.200Z,0.63
2019-02-24T06:28:29.788Z,0.63
2019-02-24T06:29:01.184Z,0.62
2019-02-24T06:29:32.479Z,0.62
2019-02-24T06:30:06.083Z,0.62
2019-02-24T06:30:37.407Z,0.61
2019-02-24T06:31:09.052Z,0.60
2019-02-24T06:31:40.474Z,0.61
2019-02-24T06:32:11.905Z,0.61
2019-02-24T06:32:43.727Z,0.60
2019-02-24T06:33:15.280Z,0.60
2019-02-24T06:33:46.915Z,0.61
2019-02-24T06:34:18.452Z,0.61
2019-02-24T06:34:49.805Z,0.63
2019-02-24T06:35:21.146Z,0.64
2019-02-24T06:35:52.566Z,0.63
2019-02-24T06:36:23.939Z,0.64
2019-02-24T06:36:55.368Z,0.64
2019-02-24T06:37:26.746Z,0.64
2019-02-24T06:37:58.163Z,0.65
2019-02-24T06:38:29.422Z,0.65
2019-02-24T06:39:00.775Z,0.67
2019-02-24T06:39:32.036Z,0.60
2019-02-24T06:40:05.940Z,0.60
2019-02-24T06:40:37.280Z,0.70
2019-02-24T06:41:08.703Z,0.70
2019-02-24T06:41:39.945Z,0.70
2019-02-24T06:42:11.282Z,0.70
2019-02-24T06:42:42.521Z,0.72
2019-02-24T06:43:14.197Z,0.72
2019-02-24T06:43:45.593Z,0.74
2019-02-24T06:44:17.279Z,0.73
2019-02-24T06:44:48.574Z,0.74
2019-02-24T06:45:19.941Z,0.74
2019-02-24T06:45:51.212Z,0.74
2019-02-24T06:46:22.607Z,0.73
2019-02-24T06:46:53.819Z,0.73
2019-02-24T06:47:25.112Z,0.75
2019-02-24T06:47:56.364Z,0.75
2019-02-24T06:48:27.812Z,0.76
2019-02-24T06:48:58.982Z,0.78
2019-02-24T06:49:30.300Z,0.80
2019-02-24T06:50:01.589Z,0.80
2019-02-24T06:50:49.816Z,0.80
2019-02-24T06:51:21.067Z,0.80
2019-02-24T06:51:52.374Z,0.85
2019-02-24T06:52:24.147Z,0.85
2019-02-24T06:52:55.498Z,0.87
2019-02-24T06:53:26.858Z,0.88
2019-02-24T06:53:58.346Z,0.92
2019-02-24T06:54:29.720Z,0.93
2019-02-24T06:55:01.155Z,0.93
2019-02-24T06:55:32.571Z,0.93
2019-02-24T06:56:03.992Z,0.93
2019-02-24T06:56:35.372Z,0.93
2019-02-24T06:57:06.782Z,0.94
2019-02-24T06:57:38.208Z,0.93
2019-02-24T06:58:09.647Z,0.95
2019-02-24T06:58:41.091Z,0.95
2019-02-24T06:59:12.425Z,0.96
2019-02-24T06:59:44.109Z,0.97